Time;durP1;ratioP1;P1;durP2;ratioP2;P2;SDS_P1;SDS_P2;PMS_P1;PMS_P2;Temp;Humidity;BMP_temperature;BMP_pressure;BME280_temperature;BME280_humidity;BME280_pressure;Samples;Min_cycle;Max_cycle;Signal;HPM_P1;HPM_P2
2022/01/06 00:01:16;;;;;;;0.40;0.40;;;2.50;99.90;;;;;;5116019;27;20443;-84
2022/01/06 00:03:43;;;;;;;0.30;0.30;;;2.50;99.90;;;;;;5115773;28;20514;-84
2022/01/06 00:06:10;;;;;;;0.30;0.30;;;2.50;99.90;;;;;;5120750;27;20448;-84
2022/01/06 00:08:38;;;;;;;0.30;0.20;;;2.50;99.90;;;;;;5115942;28;20546;-84
2022/01/06 00:11:09;;;;;;;0.30;0.30;;;2.50;99.90;;;;;;5115517;28;20542;-84
2022/01/06 00:13:47;;;;;;;0.30;0.20;;;2.50;99.90;;;;;;5115763;28;20477;-84
2022/01/06 00:16:24;;;;;;;0.30;0.30;;;2.40;99.90;;;;;;5115407;28;20570;-84
2022/01/06 00:24:22;;;;;;;0.30;0.30;;;2.30;99.90;;;;;;5115255;28;20438;-85
2022/01/06 00:26:51;;;;;;;0.60;0.60;;;2.30;99.90;;;;;;5115507;28;20455;-84
2022/01/06 00:29:19;;;;;;;0.30;0.30;;;2.40;99.90;;;;;;5115112;27;20934;-84
2022/01/06 00:31:46;;;;;;;0.30;0.20;;;2.40;99.90;;;;;;5115437;28;20895;-84
2022/01/06 00:34:13;;;;;;;0.30;0.20;;;2.40;99.90;;;;;;5115008;28;20459;-84
2022/01/06 00:36:41;;;;;;;0.40;0.40;;;2.40;99.90;;;;;;5115374;28;20458;-84
2022/01/06 00:39:09;;;;;;;0.30;0.30;;;2.50;99.90;;;;;;5114394;28;20475;-84
2022/01/06 00:41:37;;;;;;;0.30;0.20;;;2.50;99.90;;;;;;5115243;28;20881;-84
2022/01/06 00:44:07;;;;;;;0.30;0.30;;;2.50;99.90;;;;;;5115186;28;20467;-85
2022/01/06 00:46:34;;;;;;;0.30;0.30;;;2.50;99.90;;;;;;5115162;28;20458;-84
2022/01/06 00:49:01;;;;;;;0.53;0.53;;;2.50;99.90;;;;;;5114898;28;20772;-85
2022/01/06 00:51:27;;;;;;;0.30;0.30;;;2.50;99.90;;;;;;5115082;28;20466;-84
2022/01/06 00:53:54;;;;;;;0.30;0.20;;;2.60;99.90;;;;;;5115051;28;20846;-85
2022/01/06 00:56:21;;;;;;;2.70;0.70;;;2.60;99.90;;;;;;5114612;28;20448;-85
2022/01/06 00:58:48;;;;;;;0.30;0.20;;;2.60;99.90;;;;;;5114832;28;20451;-84
2022/01/06 01:01:16;;;;;;;0.30;0.20;;;2.60;99.90;;;;;;5114613;28;20893;-85
2022/01/06 01:03:43;;;;;;;0.30;0.20;;;2.60;99.90;;;;;;5114770;28;20474;-84
2022/01/06 01:06:10;;;;;;;1.57;1.17;;;2.60;99.90;;;;;;5114806;28;20447;-85
2022/01/06 01:08:38;;;;;;;0.30;0.30;;;2.60;99.90;;;;;;5114638;28;20462;-85
2022/01/06 01:11:05;;;;;;;0.30;0.30;;;2.60;99.90;;;;;;5114751;28;20447;-84
2022/01/06 01:13:36;;;;;;;0.30;0.30;;;2.60;99.90;;;;;;5114378;28;20993;-84
2022/01/06 01:16:19;;;;;;;0.30;0.30;;;2.60;99.90;;;;;;5114245;28;20525;-84
2022/01/06 01:18:49;;;;;;;0.30;0.30;;;2.60;99.90;;;;;;5114649;28;20454;-84
2022/01/06 01:21:16;;;;;;;0.30;0.30;;;2.60;99.90;;;;;;5114486;28;20431;-85
2022/01/06 01:23:42;;;;;;;0.30;0.30;;;2.60;99.90;;;;;;5114420;28;20462;-84
2022/01/06 01:26:09;;;;;;;0.30;0.20;;;2.60;99.90;;;;;;5114446;28;20450;-84
2022/01/06 01:28:43;;;;;;;0.30;0.30;;;2.60;99.90;;;;;;5114345;28;20529;-84
2022/01/06 01:31:23;;;;;;;0.30;0.20;;;2.60;99.90;;;;;;5114460;28;20474;-85
2022/01/06 01:33:52;;;;;;;0.30;0.27;;;2.60;99.90;;;;;;5114289;28;20471;-84
2022/01/06 01:36:20;;;;;;;0.30;0.27;;;2.60;99.90;;;;;;5114212;28;20454;-84
2022/01/06 01:38:47;;;;;;;0.30;0.30;;;2.60;99.90;;;;;;5114230;28;20450;-85
2022/01/06 01:41:13;;;;;;;0.30;0.27;;;2.60;99.90;;;;;;5113847;28;20485;-84
2022/01/06 01:43:41;;;;;;;0.50;0.40;;;2.50;99.90;;;;;;5114116;28;20459;-84
2022/01/06 01:46:12;;;;;;;0.30;0.20;;;2.60;99.90;;;;;;5114137;28;20439;-84
2022/01/06 01:48:43;;;;;;;1.10;0.63;;;2.60;99.90;;;;;;5114220;28;20877;-84
2022/01/06 01:51:11;;;;;;;0.30;0.30;;;2.60;99.90;;;;;;5113143;28;20431;-84
2022/01/06 01:53:38;;;;;;;0.30;0.30;;;2.60;99.90;;;;;;5113979;28;20474;-85
2022/01/06 01:56:06;;;;;;;0.30;0.30;;;2.60;99.90;;;;;;5114051;28;20446;-84
2022/01/06 01:58:34;;;;;;;0.30;0.20;;;2.60;99.90;;;;;;5113732;28;20442;-85
2022/01/06 02:01:01;;;;;;;0.30;0.30;;;2.60;99.90;;;;;;5113842;28;20478;-85
2022/01/06 02:03:27;;;;;;;0.30;0.20;;;2.60;99.90;;;;;;5113603;28;21009;-85
2022/01/06 02:05:54;;;;;;;0.40;0.40;;;2.60;99.90;;;;;;5114135;28;20427;-85
2022/01/06 02:08:22;;;;;;;0.30;0.20;;;2.60;99.90;;;;;;5114044;28;20455;-85
2022/01/06 02:10:49;;;;;;;0.90;0.40;;;2.60;99.90;;;;;;5113934;28;20450;-85
2022/01/06 02:13:16;;;;;;;0.30;0.20;;;2.50;99.90;;;;;;5113910;28;20471;-85
2022/01/06 02:15:43;;;;;;;0.30;0.30;;;2.50;99.90;;;;;;5113700;28;20535;-85
2022/01/06 02:18:09;;;;;;;0.30;0.20;;;2.50;99.90;;;;;;5113880;28;20946;-85
2022/01/06 02:20:38;;;;;;;0.30;0.30;;;2.40;99.90;;;;;;5113549;28;20501;-85
2022/01/06 02:23:04;;;;;;;0.30;0.30;;;2.40;99.90;;;;;;5113942;28;20468;-85
2022/01/06 02:25:33;;;;;;;0.30;0.20;;;2.40;99.90;;;;;;5113931;28;20447;-86
2022/01/06 02:28:02;;;;;;;0.30;0.30;;;2.40;99.90;;;;;;5113882;28;20438;-85
2022/01/06 02:30:32;;;;;;;0.30;0.20;;;2.40;99.90;;;;;;5113608;28;20489;-86
2022/01/06 02:33:00;;;;;;;0.30;0.30;;;2.40;99.90;;;;;;5113396;28;20471;-85
2022/01/06 02:35:28;;;;;;;0.30;0.30;;;2.40;99.90;;;;;;5113699;28;20447;-85
2022/01/06 02:37:56;;;;;;;0.30;0.30;;;2.40;99.90;;;;;;5113560;28;20458;-86
2022/01/06 02:40:25;;;;;;;0.30;0.30;;;2.40;99.90;;;;;;5113567;28;20474;-85
2022/01/06 02:42:54;;;;;;;0.30;0.30;;;2.50;99.90;;;;;;5113564;28;20467;-85
2022/01/06 02:45:24;;;;;;;0.30;0.20;;;2.50;99.90;;;;;;5113324;28;20931;-85
2022/01/06 02:47:50;;;;;;;0.30;0.20;;;2.50;99.90;;;;;;5113386;28;20921;-85
2022/01/06 02:50:18;;;;;;;0.30;0.20;;;2.50;99.90;;;;;;5113545;28;20438;-85
2022/01/06 02:52:45;;;;;;;0.30;0.30;;;2.40;99.90;;;;;;5113594;28;20467;-85
2022/01/06 02:55:15;;;;;;;0.30;0.20;;;2.50;99.90;;;;;;5113561;28;20442;-85
2022/01/06 02:57:42;;;;;;;0.30;0.30;;;2.40;99.90;;;;;;5113590;28;20447;-85
2022/01/06 03:00:12;;;;;;;0.30;0.30;;;2.50;99.90;;;;;;5113228;28;20844;-85
2022/01/06 03:02:41;;;;;;;0.30;0.20;;;2.40;99.90;;;;;;5116324;28;20470;-85
2022/01/06 03:05:08;;;;;;;0.30;0.30;;;2.40;99.90;;;;;;5117900;28;20809;-85
2022/01/06 03:07:35;;;;;;;0.37;0.37;;;2.40;99.90;;;;;;5116770;28;20442;-85
2022/01/06 03:10:04;;;;;;;0.30;0.20;;;2.40;99.90;;;;;;5117174;28;20450;-85
2022/01/06 03:12:39;;;;;;;0.40;0.37;;;2.40;99.90;;;;;;5117029;28;20561;-85
2022/01/06 03:15:07;;;;;;;0.30;0.20;;;2.40;99.90;;;;;;5116856;28;20527;-85
2022/01/06 03:17:33;;;;;;;0.40;0.40;;;2.30;99.90;;;;;;5116525;28;20481;-85
2022/01/06 03:20:00;;;;;;;0.93;0.50;;;2.30;99.90;;;;;;5116748;28;20483;-85
2022/01/06 03:22:28;;;;;;;0.30;0.30;;;2.30;99.90;;;;;;5116515;28;20989;-85
2022/01/06 03:24:55;;;;;;;0.30;0.30;;;2.40;99.90;;;;;;5116577;28;20454;-84
2022/01/06 03:27:22;;;;;;;0.30;0.27;;;2.30;99.90;;;;;;5121007;28;20942;-85
2022/01/06 03:29:50;;;;;;;0.30;0.30;;;2.30;99.90;;;;;;5117024;28;20504;-85
2022/01/06 03:32:17;;;;;;;0.30;0.30;;;2.40;99.90;;;;;;5120526;28;20487;-85
2022/01/06 03:34:44;;;;;;;0.30;0.30;;;2.40;99.90;;;;;;5116746;28;20425;-85
2022/01/06 03:37:11;;;;;;;0.30;0.30;;;2.40;99.90;;;;;;5116311;27;20531;-85
2022/01/06 03:39:39;;;;;;;0.30;0.30;;;2.40;99.90;;;;;;5116249;28;20450;-85
2022/01/06 03:42:07;;;;;;;0.30;0.30;;;2.40;99.90;;;;;;5116363;28;20522;-85
2022/01/06 03:44:33;;;;;;;0.30;0.30;;;2.40;99.90;;;;;;5116528;28;20449;-85
2022/01/06 03:47:02;;;;;;;0.30;0.20;;;2.40;99.90;;;;;;5116529;28;20458;-85
2022/01/06 03:49:29;;;;;;;0.30;0.20;;;2.40;99.90;;;;;;5116455;28;20446;-85
2022/01/06 03:51:55;;;;;;;0.30;0.20;;;2.40;99.90;;;;;;5116031;28;20445;-84
2022/01/06 03:54:22;;;;;;;0.30;0.20;;;2.50;99.90;;;;;;5115938;28;20451;-85
2022/01/06 03:56:49;;;;;;;0.30;0.20;;;2.50;99.90;;;;;;5116204;27;20836;-85
2022/01/06 03:59:16;;;;;;;0.30;0.30;;;2.50;99.90;;;;;;5116149;28;20447;-85
2022/01/06 04:01:43;;;;;;;0.30;0.30;;;2.50;99.90;;;;;;5116050;28;20490;-85
2022/01/06 04:04:12;;;;;;;0.30;0.20;;;2.50;99.90;;;;;;5115836;28;20462;-85
2022/01/06 04:06:39;;;;;;;0.30;0.20;;;2.40;99.90;;;;;;5116090;27;20462;-85
2022/01/06 04:09:07;;;;;;;0.30;0.27;;;2.40;99.90;;;;;;5116074;28;20443;-85
2022/01/06 04:11:34;;;;;;;0.30;0.20;;;2.50;99.90;;;;;;5115640;28;20442;-85
2022/01/06 04:14:00;;;;;;;0.30;0.30;;;2.50;99.90;;;;;;5114919;28;20467;-85
2022/01/06 04:16:29;;;;;;;0.40;0.30;;;2.50;99.90;;;;;;5115482;28;20577;-85
2022/01/06 04:18:56;;;;;;;0.40;0.30;;;2.50;99.90;;;;;;5115756;28;20462;-85
2022/01/06 04:21:24;;;;;;;0.30;0.20;;;2.50;99.90;;;;;;5115611;28;20487;-84
2022/01/06 04:23:51;;;;;;;0.30;0.20;;;2.50;99.90;;;;;;5115506;28;20463;-84
2022/01/06 04:26:18;;;;;;;0.30;0.20;;;2.50;99.90;;;;;;5115506;28;20451;-83
2022/01/06 04:28:45;;;;;;;0.30;0.20;;;2.40;99.90;;;;;;5115175;27;20531;-83
2022/01/06 04:31:11;;;;;;;0.30;0.30;;;2.40;99.90;;;;;;5115179;28;20438;-84
2022/01/06 04:33:38;;;;;;;0.30;0.20;;;2.30;99.90;;;;;;5115316;28;20470;-84
2022/01/06 04:36:06;;;;;;;0.30;0.20;;;2.30;99.90;;;;;;5115096;28;20949;-84
2022/01/06 04:38:36;;;;;;;0.30;0.30;;;2.30;99.90;;;;;;5115399;28;20454;-84
2022/01/06 04:41:03;;;;;;;0.30;0.30;;;2.30;99.90;;;;;;5115125;28;20566;-84
2022/01/06 04:43:30;;;;;;;0.30;0.20;;;2.30;99.90;;;;;;5114873;28;20463;-84
2022/01/06 04:45:57;;;;;;;0.30;0.30;;;2.30;99.90;;;;;;5114944;28;20938;-84
2022/01/06 04:48:24;;;;;;;0.30;0.30;;;2.30;99.90;;;;;;5115106;28;20445;-84
2022/01/06 04:50:51;;;;;;;0.30;0.30;;;2.20;99.90;;;;;;5115084;28;20973;-84
2022/01/06 04:53:17;;;;;;;0.30;0.20;;;2.30;99.90;;;;;;5115334;28;20470;-84
2022/01/06 04:55:45;;;;;;;0.30;0.30;;;2.20;99.90;;;;;;5114690;28;20451;-84
2022/01/06 04:58:12;;;;;;;0.30;0.30;;;2.20;99.90;;;;;;5114679;28;20447;-84
2022/01/06 05:00:39;;;;;;;0.30;0.20;;;2.20;99.90;;;;;;5115434;28;20483;-84
2022/01/06 05:03:06;;;;;;;0.30;0.30;;;2.20;99.90;;;;;;5114824;28;20834;-84
2022/01/06 05:05:32;;;;;;;0.30;0.30;;;2.20;99.90;;;;;;5114764;28;20450;-84
2022/01/06 05:08:00;;;;;;;0.30;0.30;;;2.20;99.90;;;;;;5114724;28;20447;-84
2022/01/06 05:10:27;;;;;;;0.30;0.30;;;2.30;99.90;;;;;;5114693;28;20423;-84
2022/01/06 05:12:55;;;;;;;0.30;0.20;;;2.30;99.90;;;;;;5114614;28;20474;-84
2022/01/06 05:15:22;;;;;;;0.40;0.40;;;2.30;99.90;;;;;;5114140;28;20427;-84
2022/01/06 05:17:48;;;;;;;0.30;0.20;;;2.30;99.90;;;;;;5114620;28;20790;-84
2022/01/06 05:20:15;;;;;;;0.30;0.30;;;2.30;99.90;;;;;;5114455;28;20446;-84
2022/01/06 05:22:45;;;;;;;0.30;0.20;;;2.30;99.90;;;;;;5114444;28;20462;-84
2022/01/06 05:25:13;;;;;;;0.30;0.20;;;2.30;99.90;;;;;;5114264;28;20447;-84
2022/01/06 05:27:40;;;;;;;0.30;0.30;;;2.30;99.90;;;;;;5114363;28;20536;-84
2022/01/06 05:30:09;;;;;;;0.30;0.30;;;2.30;99.90;;;;;;5114321;27;20450;-84
2022/01/06 05:32:36;;;;;;;0.30;0.30;;;2.30;99.90;;;;;;5114296;28;20471;-84
2022/01/06 05:35:03;;;;;;;0.30;0.30;;;2.20;99.90;;;;;;5114248;28;20421;-84
2022/01/06 05:37:30;;;;;;;0.30;0.20;;;2.20;99.90;;;;;;5114251;28;20450;-84
2022/01/06 05:39:56;;;;;;;0.30;0.20;;;2.20;99.90;;;;;;5114268;28;20450;-84
2022/01/06 05:42:23;;;;;;;0.30;0.30;;;2.20;99.90;;;;;;5113940;28;20494;-83
2022/01/06 05:44:50;;;;;;;0.30;0.30;;;2.20;99.90;;;;;;5114124;28;20817;-83
2022/01/06 05:47:18;;;;;;;0.30;0.20;;;2.20;99.90;;;;;;5114122;28;20458;-84
2022/01/06 05:49:45;;;;;;;0.30;0.30;;;2.20;99.90;;;;;;5114110;28;20450;-83
2022/01/06 05:52:12;;;;;;;1.50;0.73;;;2.20;99.90;;;;;;5113919;28;20446;-83
2022/01/06 05:54:39;;;;;;;0.30;0.20;;;2.10;99.90;;;;;;5113985;28;20446;-83
2022/01/06 05:57:07;;;;;;;0.30;0.20;;;2.10;99.90;;;;;;5114514;28;20459;-83
2022/01/06 05:59:34;;;;;;;0.30;0.30;;;2.10;99.90;;;;;;5114463;28;20443;-84
2022/01/06 06:02:01;;;;;;;0.30;0.20;;;2.00;99.90;;;;;;5113823;28;20495;-84
2022/01/06 06:04:29;;;;;;;0.30;0.30;;;2.00;99.90;;;;;;5113745;28;20494;-83
2022/01/06 06:06:56;;;;;;;0.30;0.20;;;2.00;99.90;;;;;;5113876;28;20451;-84
2022/01/06 06:09:22;;;;;;;0.30;0.30;;;1.90;99.90;;;;;;5113850;28;20447;-84
2022/01/06 06:11:49;;;;;;;0.30;0.20;;;1.90;99.90;;;;;;5113520;28;20938;-83
2022/01/06 06:14:16;;;;;;;0.30;0.30;;;1.80;99.90;;;;;;5113913;28;20474;-84
2022/01/06 06:16:43;;;;;;;0.40;0.40;;;1.90;99.90;;;;;;5113374;28;20470;-84
2022/01/06 06:19:10;;;;;;;0.30;0.30;;;1.80;99.90;;;;;;5113446;28;20815;-83
2022/01/06 06:21:38;;;;;;;0.30;0.30;;;1.90;99.90;;;;;;5113663;28;20452;-84
2022/01/06 06:24:06;;;;;;;0.30;0.30;;;1.90;99.90;;;;;;5113349;28;20463;-83
2022/01/06 06:26:33;;;;;;;0.30;0.30;;;2.00;99.90;;;;;;5120473;28;20449;-83
2022/01/06 06:29:00;;;;;;;0.30;0.30;;;2.00;99.90;;;;;;5118705;28;20431;-83
2022/01/06 06:31:26;;;;;;;0.30;0.20;;;2.00;99.90;;;;;;5113772;28;20454;-83
2022/01/06 06:33:53;;;;;;;0.30;0.20;;;2.00;99.90;;;;;;5113554;28;20540;-83
2022/01/06 06:36:20;;;;;;;0.30;0.20;;;2.10;99.90;;;;;;5114123;28;20963;-84
2022/01/06 06:38:48;;;;;;;0.30;0.30;;;2.10;99.90;;;;;;5117638;28;20449;-84
2022/01/06 06:41:15;;;;;;;0.40;0.40;;;2.10;99.90;;;;;;5117541;28;20470;-84
2022/01/06 06:43:41;;;;;;;0.67;0.67;;;2.10;99.90;;;;;;5117137;28;20463;-84
2022/01/06 06:46:08;;;;;;;0.30;0.20;;;2.10;99.90;;;;;;5117541;28;20439;-84
2022/01/06 06:48:35;;;;;;;0.30;0.30;;;2.10;99.90;;;;;;5117492;28;20450;-84
2022/01/06 06:51:02;;;;;;;0.30;0.30;;;2.10;99.90;;;;;;5117140;28;20442;-84
2022/01/06 06:53:29;;;;;;;0.30;0.30;;;2.10;99.90;;;;;;5117343;28;20474;-84
2022/01/06 06:55:57;;;;;;;0.30;0.30;;;2.10;99.90;;;;;;5117345;28;20447;-84
2022/01/06 06:58:24;;;;;;;0.30;0.23;;;2.20;99.90;;;;;;5117367;28;20442;-84
2022/01/06 07:00:51;;;;;;;0.30;0.30;;;2.20;99.90;;;;;;5117238;28;20826;-84
2022/01/06 07:03:17;;;;;;;0.33;0.27;;;2.20;99.90;;;;;;5117152;28;20463;-84
2022/01/06 07:05:44;;;;;;;0.30;0.30;;;2.20;99.90;;;;;;5117300;28;20559;-84
2022/01/06 07:08:11;;;;;;;0.30;0.30;;;2.20;99.90;;;;;;5117160;28;20442;-84
2022/01/06 07:10:37;;;;;;;0.30;0.30;;;2.20;99.90;;;;;;5116804;28;20965;-84
2022/01/06 07:13:06;;;;;;;0.30;0.20;;;2.20;99.90;;;;;;5116867;28;20466;-85
2022/01/06 07:15:34;;;;;;;0.30;0.20;;;2.30;99.90;;;;;;5116761;28;20906;-83
2022/01/06 07:18:00;;;;;;;0.30;0.30;;;2.30;99.90;;;;;;5116998;28;20529;-84
2022/01/06 07:20:27;;;;;;;0.30;0.30;;;2.30;99.90;;;;;;5117028;28;20443;-84
2022/01/06 07:22:54;;;;;;;0.30;0.30;;;2.30;99.90;;;;;;5116410;28;20997;-84
2022/01/06 07:25:21;;;;;;;0.30;0.30;;;2.30;99.90;;;;;;5116886;28;20454;-84
2022/01/06 07:27:48;;;;;;;0.30;0.20;;;2.30;99.90;;;;;;5116762;28;20443;-84
2022/01/06 07:30:16;;;;;;;0.30;0.30;;;2.30;99.90;;;;;;5116706;27;20442;-84
2022/01/06 07:32:45;;;;;;;0.30;0.20;;;2.30;99.90;;;;;;5116373;28;20459;-84
2022/01/06 07:35:12;;;;;;;0.30;0.30;;;2.30;99.90;;;;;;5116607;28;20454;-84
2022/01/06 07:37:39;;;;;;;0.33;0.33;;;2.30;99.90;;;;;;5116562;28;20450;-84
2022/01/06 07:40:07;;;;;;;0.30;0.30;;;2.30;99.90;;;;;;5116539;27;20446;-84
2022/01/06 07:42:34;;;;;;;0.30;0.30;;;2.30;99.90;;;;;;5115982;27;20478;-84
2022/01/06 07:45:02;;;;;;;0.30;0.20;;;2.30;99.90;;;;;;5116444;28;20454;-84
2022/01/06 07:47:31;;;;;;;0.30;0.20;;;2.30;99.90;;;;;;5116266;28;20443;-83
2022/01/06 07:49:58;;;;;;;0.30;0.30;;;2.30;99.90;;;;;;5116316;28;20447;-84
2022/01/06 07:52:25;;;;;;;0.30;0.20;;;2.30;99.90;;;;;;5116175;28;20451;-84
2022/01/06 07:54:52;;;;;;;0.30;0.20;;;2.30;99.90;;;;;;5116262;28;20450;-84
2022/01/06 07:57:19;;;;;;;0.30;0.30;;;2.30;99.90;;;;;;5116641;27;20454;-83
2022/01/06 07:59:46;;;;;;;0.30;0.20;;;2.40;99.90;;;;;;5116189;28;20477;-83
2022/01/06 08:02:14;;;;;;;0.40;0.40;;;2.40;99.90;;;;;;5116299;27;20475;-84
2022/01/06 08:04:42;;;;;;;0.30;0.30;;;2.40;99.90;;;;;;5115695;28;20443;-84
2022/01/06 08:07:09;;;;;;;0.30;0.23;;;2.50;99.90;;;;;;5116071;28;20443;-83
2022/01/06 08:09:36;;;;;;;0.30;0.20;;;2.50;99.90;;;;;;5115951;28;20862;-84
2022/01/06 08:12:03;;;;;;;0.30;0.23;;;2.50;99.90;;;;;;5115942;28;20796;-84
2022/01/06 08:14:31;;;;;;;0.30;0.20;;;2.60;99.90;;;;;;5115874;28;20470;-84
2022/01/06 08:16:59;;;;;;;0.30;0.30;;;2.60;99.90;;;;;;5115538;28;20494;-84
2022/01/06 08:19:25;;;;;;;0.30;0.30;;;2.60;99.90;;;;;;5115805;28;20451;-84
2022/01/06 08:21:53;;;;;;;0.30;0.30;;;2.60;99.90;;;;;;5115571;28;20867;-84
2022/01/06 08:24:20;;;;;;;0.30;0.30;;;2.60;99.90;;;;;;5115234;28;20466;-84
2022/01/06 08:26:47;;;;;;;0.30;0.30;;;2.50;99.90;;;;;;5115541;27;20451;-84
2022/01/06 08:29:14;;;;;;;0.30;0.20;;;2.50;99.90;;;;;;5115222;27;20934;-84
2022/01/06 08:31:40;;;;;;;0.30;0.30;;;2.40;99.90;;;;;;5115438;28;20447;-84
2022/01/06 08:34:07;;;;;;;0.30;0.20;;;2.40;99.90;;;;;;5115366;28;20470;-84
2022/01/06 08:36:36;;;;;;;0.30;0.30;;;2.40;99.90;;;;;;5115077;28;20894;-83
2022/01/06 08:39:04;;;;;;;0.30;0.27;;;2.50;99.90;;;;;;5115292;28;20778;-83
2022/01/06 08:41:30;;;;;;;0.30;0.20;;;2.60;99.90;;;;;;5114973;28;20989;-83
2022/01/06 08:43:57;;;;;;;0.30;0.30;;;2.80;99.90;;;;;;5115332;28;20463;-83
2022/01/06 08:46:24;;;;;;;0.30;0.20;;;3.00;99.90;;;;;;5115270;28;20430;-84
2022/01/06 08:48:51;;;;;;;0.30;0.30;;;3.20;99.90;;;;;;5115247;28;20423;-84
2022/01/06 08:51:18;;;;;;;0.30;0.20;;;3.30;99.90;;;;;;5114888;28;20910;-83
2022/01/06 08:53:45;;;;;;;0.30;0.30;;;3.30;99.90;;;;;;5114787;28;20471;-84
2022/01/06 08:56:14;;;;;;;0.30;0.20;;;3.20;99.90;;;;;;5114810;28;20502;-84
2022/01/06 08:58:40;;;;;;;0.30;0.20;;;3.10;99.90;;;;;;5114359;28;20431;-82
2022/01/06 09:01:07;;;;;;;0.50;0.50;;;3.10;99.90;;;;;;5114767;28;20515;-83
2022/01/06 09:03:34;;;;;;;0.30;0.20;;;3.00;99.90;;;;;;5114745;28;20525;-83
2022/01/06 09:06:01;;;;;;;0.30;0.30;;;3.00;99.90;;;;;;5114845;28;20447;-83
2022/01/06 09:08:28;;;;;;;0.30;0.20;;;3.00;99.90;;;;;;5114529;27;20419;-84
2022/01/06 09:10:54;;;;;;;0.30;0.30;;;3.00;99.90;;;;;;5114811;28;20430;-84
2022/01/06 09:13:22;;;;;;;0.60;0.60;;;3.00;99.90;;;;;;5114582;28;20462;-84
2022/01/06 09:15:49;;;;;;;0.40;0.40;;;3.10;99.90;;;;;;5114157;28;20477;-84
2022/01/06 09:18:16;;;;;;;0.30;0.20;;;3.30;99.90;;;;;;5114292;28;20435;-84
2022/01/06 09:20:43;;;;;;;0.30;0.30;;;3.70;99.90;;;;;;5114411;28;20450;-84
2022/01/06 09:23:09;;;;;;;0.40;0.40;;;4.10;99.90;;;;;;5114347;28;20491;-84
2022/01/06 09:25:36;;;;;;;0.30;0.23;;;4.50;99.90;;;;;;5114410;28;20807;-83
2022/01/06 09:28:03;;;;;;;0.30;0.20;;;4.90;99.90;;;;;;5114357;28;20449;-84
2022/01/06 09:30:31;;;;;;;0.30;0.30;;;5.20;99.90;;;;;;5114326;28;20455;-84
2022/01/06 09:32:58;;;;;;;0.30;0.20;;;5.20;99.90;;;;;;5113952;28;20466;-84
2022/01/06 09:35:25;;;;;;;0.30;0.30;;;5.00;99.90;;;;;;5114233;28;20451;-83
2022/01/06 09:37:51;;;;;;;0.53;0.50;;;4.70;99.90;;;;;;5113864;28;20818;-82
2022/01/06 09:40:18;;;;;;;0.40;0.30;;;4.50;99.90;;;;;;5113918;28;20976;-83
2022/01/06 09:42:45;;;;;;;0.30;0.20;;;4.30;99.90;;;;;;5113990;28;20853;-83
2022/01/06 09:45:13;;;;;;;0.30;0.20;;;4.00;99.90;;;;;;5114107;28;20451;-83
2022/01/06 09:47:43;;;;;;;1.80;0.67;;;3.90;99.90;;;;;;5113812;28;20929;-83
2022/01/06 09:50:12;;;;;;;0.70;0.30;;;3.80;99.90;;;;;;5114109;28;20431;-83
2022/01/06 09:52:39;;;;;;;0.30;0.20;;;3.70;99.90;;;;;;5113981;28;20455;-83
2022/01/06 09:55:08;;;;;;;0.30;0.30;;;3.80;99.90;;;;;;5114017;28;20455;-83
2022/01/06 09:57:34;;;;;;;0.30;0.30;;;4.50;99.90;;;;;;5113999;28;20454;-83
2022/01/06 10:00:04;;;;;;;0.30;0.30;;;5.70;99.90;;;;;;5113929;28;20447;-83
2022/01/06 10:02:34;;;;;;;0.30;0.20;;;7.30;99.90;;;;;;5113884;28;20855;-83
2022/01/06 10:05:04;;;;;;;0.60;0.50;;;8.90;99.90;;;;;;5113988;28;20450;-83
2022/01/06 10:07:36;;;;;;;0.30;0.20;;;9.90;99.90;;;;;;5113536;28;20946;-84
2022/01/06 10:10:07;;;;;;;0.30;0.30;;;10.70;99.90;;;;;;5113565;28;20898;-84
2022/01/06 10:12:35;;;;;;;0.50;0.37;;;11.50;99.90;;;;;;5116525;28;20496;-84
2022/01/06 10:15:02;;;;;;;0.30;0.30;;;11.60;99.90;;;;;;5118263;28;20441;-84
2022/01/06 10:17:34;;;;;;;0.60;0.60;;;11.40;99.90;;;;;;5117795;28;20517;-85
2022/01/06 10:20:11;;;;;;;0.30;0.30;;;11.10;99.90;;;;;;5118096;28;20853;-85
2022/01/06 10:22:44;;;;;;;0.30;0.30;;;10.80;99.90;;;;;;5117809;28;20556;-85
2022/01/06 10:25:11;;;;;;;0.30;0.30;;;10.20;99.90;;;;;;5117707;28;20435;-84
2022/01/06 10:27:38;;;;;;;0.40;0.30;;;9.50;99.90;;;;;;5117536;28;20446;-84
2022/01/06 10:30:07;;;;;;;0.30;0.20;;;8.90;99.90;;;;;;5117486;28;20451;-84
2022/01/06 10:32:34;;;;;;;0.30;0.20;;;8.40;99.90;;;;;;5117647;28;20473;-84
2022/01/06 10:35:03;;;;;;;0.30;0.30;;;8.10;99.90;;;;;;5117739;28;20833;-84
2022/01/06 10:37:34;;;;;;;0.30;0.30;;;7.80;99.90;;;;;;5117677;28;20466;-84
2022/01/06 10:40:02;;;;;;;0.40;0.30;;;7.40;99.90;;;;;;5117319;28;20439;-84
2022/01/06 10:42:32;;;;;;;0.30;0.20;;;7.10;99.90;;;;;;5117186;28;20856;-84
2022/01/06 10:45:04;;;;;;;0.33;0.33;;;6.70;99.90;;;;;;5117549;28;20484;-84
2022/01/06 10:47:33;;;;;;;0.30;0.20;;;6.60;99.90;;;;;;5117522;28;20431;-83
2022/01/06 10:50:19;;;;;;;4.90;0.50;;;6.50;99.90;;;;;;5118295;27;20423;-84
2022/01/06 10:52:50;;;;;;;0.30;0.20;;;6.30;99.90;;;;;;5117342;28;20454;-84
2022/01/06 10:55:19;;;;;;;0.40;0.30;;;6.30;99.90;;;;;;5117465;28;20423;-84
2022/01/06 10:57:55;;;;;;;0.30;0.30;;;6.20;99.90;;;;;;5117350;28;20427;-84
2022/01/06 11:00:24;;;;;;;0.30;0.30;;;6.10;99.90;;;;;;5117357;28;20414;-84
2022/01/06 11:02:51;;;;;;;0.30;0.20;;;6.00;99.90;;;;;;5116939;27;21016;-84
2022/01/06 11:05:18;;;;;;;0.30;0.20;;;5.90;99.90;;;;;;5116893;28;20915;-85
2022/01/06 11:07:44;;;;;;;0.50;0.30;;;5.90;99.90;;;;;;5117267;28;20435;-86
2022/01/06 11:10:20;;;;;;;0.47;0.47;;;5.90;99.90;;;;;;5117270;28;20427;-85
2022/01/06 11:12:47;;;;;;;0.30;0.20;;;6.00;99.90;;;;;;5116681;28;20466;-85
2022/01/06 11:15:14;;;;;;;0.30;0.30;;;6.10;99.90;;;;;;5117063;28;20435;-85
2022/01/06 11:17:46;;;;;;;0.30;0.30;;;6.10;99.90;;;;;;5116639;28;20475;-85
2022/01/06 11:20:13;;;;;;;0.40;0.30;;;6.10;99.90;;;;;;5117016;28;20812;-85
2022/01/06 11:22:49;;;;;;;0.30;0.30;;;6.10;99.90;;;;;;5116653;27;20485;-84
2022/01/06 11:25:28;;;;;;;0.30;0.30;;;5.80;99.90;;;;;;5119927;28;20764;-84
2022/01/06 11:28:01;;;;;;;0.30;0.30;;;5.80;99.90;;;;;;5116779;28;20423;-84
2022/01/06 11:30:39;;;;;;;0.40;0.37;;;5.70;99.90;;;;;;5116786;27;20435;-84
2022/01/06 11:33:06;;;;;;;0.30;0.20;;;5.60;99.90;;;;;;5116569;28;20521;-84
2022/01/06 11:35:47;;;;;;;0.30;0.30;;;5.50;99.90;;;;;;5116646;28;20431;-84
2022/01/06 11:38:15;;;;;;;0.30;0.20;;;5.40;99.90;;;;;;5116548;28;20438;-84
2022/01/06 11:40:44;;;;;;;0.77;0.60;;;5.40;99.90;;;;;;5116602;28;20431;-83
2022/01/06 11:43:11;;;;;;;0.30;0.20;;;5.40;99.90;;;;;;5116390;28;20493;-86
2022/01/06 11:45:38;;;;;;;0.30;0.20;;;5.40;99.90;;;;;;5116527;27;20431;-85
2022/01/06 11:48:07;;;;;;;0.40;0.30;;;5.40;99.90;;;;;;5116440;28;20431;-85
2022/01/06 11:50:37;;;;;;;0.30;0.20;;;5.40;99.90;;;;;;5116499;28;20428;-85
2022/01/06 11:53:04;;;;;;;0.93;0.40;;;5.30;99.90;;;;;;5116049;28;20455;-85
2022/01/06 11:55:34;;;;;;;0.30;0.20;;;5.20;99.90;;;;;;5116300;28;20800;-84
2022/01/06 11:58:10;;;;;;;0.30;0.20;;;5.10;99.90;;;;;;5116265;28;20488;-85
2022/01/06 12:00:42;;;;;;;0.30;0.20;;;4.90;99.90;;;;;;5116296;28;20431;-85
2022/01/06 12:03:11;;;;;;;0.30;0.27;;;4.80;99.90;;;;;;5116031;28;20490;-85
2022/01/06 12:05:48;;;;;;;0.30;0.20;;;4.70;99.90;;;;;;5116120;28;20431;-83
2022/01/06 12:08:15;;;;;;;0.53;0.53;;;4.60;99.90;;;;;;5115609;28;20933;-83
2022/01/06 12:10:44;;;;;;;0.30;0.20;;;4.50;99.90;;;;;;5115953;28;20431;-83
2022/01/06 12:13:13;;;;;;;0.30;0.30;;;4.40;99.90;;;;;;5115510;28;21004;-83
2022/01/06 12:15:48;;;;;;;0.30;0.30;;;4.30;99.90;;;;;;5115367;28;20970;-83
2022/01/06 12:18:20;;;;;;;0.30;0.20;;;4.30;99.90;;;;;;5115485;28;20437;-82
2022/01/06 12:20:48;;;;;;;0.30;0.20;;;4.30;99.90;;;;;;5115443;28;20424;-83
2022/01/06 12:23:15;;;;;;;0.97;0.93;;;4.40;99.90;;;;;;5115215;28;20889;-83
2022/01/06 12:25:42;;;;;;;0.30;0.30;;;4.40;99.90;;;;;;5115658;28;20427;-83
2022/01/06 12:28:12;;;;;;;0.30;0.20;;;4.50;99.90;;;;;;5115559;28;20438;-83
2022/01/06 12:30:39;;;;;;;0.30;0.30;;;4.60;99.90;;;;;;5115607;28;20427;-85
2022/01/06 12:33:07;;;;;;;0.30;0.20;;;4.70;99.90;;;;;;5115467;28;20819;-85
2022/01/06 12:35:43;;;;;;;0.30;0.20;;;4.80;99.90;;;;;;5114389;28;20439;-85
2022/01/06 12:38:11;;;;;;;0.30;0.30;;;4.90;99.90;;;;;;5115261;28;20442;-85
2022/01/06 12:40:40;;;;;;;0.30;0.20;;;5.00;99.90;;;;;;5115444;28;20438;-85
2022/01/06 12:43:19;;;;;;;0.30;0.30;;;5.10;99.90;;;;;;5115260;28;20489;-85
2022/01/06 12:45:46;;;;;;;0.30;0.30;;;5.20;99.90;;;;;;5115296;28;20431;-85
2022/01/06 12:48:14;;;;;;;0.30;0.30;;;5.50;99.90;;;;;;5115307;28;20431;-85
2022/01/06 12:50:45;;;;;;;0.30;0.20;;;5.50;99.90;;;;;;5115358;28;20438;-85
2022/01/06 12:53:23;;;;;;;0.30;0.20;;;5.40;99.90;;;;;;5115131;28;20462;-85
2022/01/06 12:55:51;;;;;;;0.30;0.30;;;5.30;99.90;;;;;;5114885;28;20971;-85
2022/01/06 12:58:26;;;;;;;0.30;0.23;;;5.20;99.90;;;;;;5115115;28;20838;-85
2022/01/06 13:00:54;;;;;;;0.30;0.20;;;5.20;99.90;;;;;;5115058;28;20439;-85
2022/01/06 13:03:27;;;;;;;0.30;0.20;;;5.20;99.90;;;;;;5115545;28;20482;-85
2022/01/06 13:05:54;;;;;;;0.30;0.20;;;5.10;99.90;;;;;;5115842;28;20895;-85
2022/01/06 13:08:21;;;;;;;0.30;0.20;;;5.00;99.90;;;;;;5115633;28;20427;-84